This is the latest recevied weather packets stored in our database for station/object KE8BSM. If no packets are shown the sender has not sent any weather packets the latest 10 day(s).
| Time | Temp. | Humidity | Pressure | Rain* | Wind** | Luminosity | Snow |
|---|---|---|---|---|---|---|---|
| 1777586117 | 8.33° C | 51% | 1015 hPa | 0 mm | - | 146 W/m² | - |
| 1777584918 | 8.89° C | 45% | 1014.7 hPa | 0 mm | - | 536 W/m² | - |
| 1777578917 | 10° C | 44% | 1015.3 hPa | 0 mm | - | 798 W/m² | - |
| 1777577117 | 9.44° C | 47% | 1015.4 hPa | 0 mm | - | 850 W/m² | - |
| 1777575316 | 9.44° C | 48% | 1015.3 hPa | 0 mm | - | 889 W/m² | - |
| 1777574716 | 9.44° C | 50% | 1015.3 hPa | 0 mm | - | 896 W/m² | - |
| 1777573517 | 9.44° C | 46% | 1015.3 hPa | 0 mm | - | 912 W/m² | - |
| 1777569917 | 8.89° C | 53% | 1015.8 hPa | 0 mm | - | 482 W/m² | - |
| 1777566938 | 8.33° C | 53% | 1015.8 hPa | 0 mm | - | 566 W/m² | - |
| 1777566317 | 8.33° C | 51% | 1015.9 hPa | 0 mm | - | 314 W/m² | - |
| 1777564518 | 8.33° C | 57% | 1016 hPa | 0 mm | - | 126 W/m² | - |
| 1777563319 | 8.33° C | 55% | 1016 hPa | 0 mm | - | 206 W/m² | - |
| 1777548322 | 2.78° C | 99% | 1015.7 hPa | 0 mm | - | 25 W/m² | - |
| 1777547122 | 2.22° C | 99% | 1015.5 hPa | 0 mm | - | 12 W/m² | - |
| 1777539324 | 4.44° C | 93% | 1015.3 hPa | 0 mm | - | 0 W/m² | - |
| 1777538724 | 4.44° C | 91% | 1015.3 hPa | 0 mm | - | 0 W/m² | - |
| 1777536925 | 5° C | 88% | 1015.3 hPa | 0 mm | - | 0 W/m² | - |
| 1777535725 | 5° C | 90% | 1015.3 hPa | 0 mm | - | 0 W/m² | - |
| 1777533926 | 5° C | 88% | 1015.2 hPa | 0 mm | - | 0 W/m² | - |
| 1777526147 | 5° C | 95% | 1015.3 hPa | 0 mm | - | 0 W/m² | - |
| 1777525528 | 5° C | 96% | 1015.4 hPa | 0 mm | - | 0 W/m² | - |
| 1777519515 | 6.11° C | 96% | 1015.3 hPa | 0 mm | - | 0 W/m² | - |
| 1777518336 | 6.11° C | 96% | 1015.4 hPa | 0 mm | - | 0 W/m² | - |
| 1777508718 | 7.22° C | 92% | 1013.6 hPa | 0 mm | - | 2 W/m² | - |
| 1777505716 | 7.22° C | 92% | 1013.2 hPa | 0 mm | - | 18 W/m² | - |
* Rain latest hour (hover to see other rain measurements)
** Current wind speed in m/s (hover to see current wind gust speed)